Time;durP1;ratioP1;P1;durP2;ratioP2;P2;SDS_P1;SDS_P2;PMS_P1;PMS_P2;Temp;Humidity;BMP_temperature;BMP_pressure;BME280_temperature;BME280_humidity;BME280_pressure;Samples;Min_cycle;Max_cycle;Signal;HPM_P1;HPM_P2
2021/09/20 00:00:11;;;;;;;5.55;2.15;;;;;;;13.45;100.00;101796.59;4954077;29;20055;-80
2021/09/20 00:02:38;;;;;;;6.60;2.20;;;;;;;13.38;100.00;101795.97;4954945;28;20075;-79
2021/09/20 00:05:08;;;;;;;6.97;2.65;;;;;;;13.30;100.00;101792.69;4954957;28;20051;-79
2021/09/20 00:07:38;;;;;;;5.78;3.03;;;;;;;13.32;100.00;101795.25;4954451;28;20488;-80
2021/09/20 00:10:07;;;;;;;5.65;1.98;;;;;;;13.26;100.00;101796.31;4954879;28;20052;-80
2021/09/20 00:12:33;;;;;;;5.82;2.30;;;;;;;13.21;100.00;101799.09;4955733;28;20062;-80
2021/09/20 00:14:59;;;;;;;5.57;2.17;;;;;;;13.16;100.00;101797.50;4954712;28;20407;-80
2021/09/20 00:17:27;;;;;;;5.32;1.42;;;;;;;13.08;100.00;101800.38;4949473;28;20059;-80
2021/09/20 00:19:53;;;;;;;6.85;2.25;;;;;;;13.08;100.00;101803.84;4934781;29;20512;-79
2021/09/20 00:22:22;;;;;;;9.57;3.15;;;;;;;13.05;100.00;101806.59;4937351;29;20484;-82
2021/09/20 00:24:51;;;;;;;4.70;2.40;;;;;;;12.94;100.00;101808.69;4937317;29;20051;-80
2021/09/20 00:27:17;;;;;;;5.60;2.80;;;;;;;12.79;100.00;101795.13;4955186;29;20059;-79
2021/09/20 00:29:45;;;;;;;6.07;2.63;;;;;;;12.80;100.00;101806.47;4970399;28;20102;-80
2021/09/20 00:32:12;;;;;;;8.20;2.75;;;;;;;12.77;100.00;101807.41;4954772;28;20062;-80
2021/09/20 00:34:38;;;;;;;5.38;2.22;;;;;;;12.70;100.00;101805.88;4954913;28;20055;-80
2021/09/20 00:37:04;;;;;;;6.75;2.95;;;;;;;12.70;100.00;101808.50;4954704;28;20058;-80
2021/09/20 00:39:30;;;;;;;7.80;2.90;;;;;;;12.49;100.00;101795.09;4941924;28;20134;-80
2021/09/20 00:41:56;;;;;;;6.55;2.30;;;;;;;12.55;100.00;101812.41;4949989;28;20051;-80
2021/09/20 00:44:22;;;;;;;8.43;2.72;;;;;;;12.52;100.00;101817.72;4967879;28;20081;-80
2021/09/20 00:46:49;;;;;;;7.70;2.72;;;;;;;12.52;100.00;101811.66;4944950;28;20551;-80
2021/09/20 00:49:16;;;;;;;8.45;3.17;;;;;;;12.57;100.00;101815.00;4955701;29;20056;-80
2021/09/20 00:51:42;;;;;;;7.88;3.10;;;;;;;12.36;100.00;101798.13;4958524;28;20106;-80
2021/09/20 00:54:09;;;;;;;6.38;2.17;;;;;;;12.46;100.00;101818.78;4957138;28;20051;-80
2021/09/20 00:56:37;;;;;;;7.18;2.00;;;;;;;12.32;100.00;101808.69;4958657;29;20101;-80
2021/09/20 00:59:05;;;;;;;6.47;2.28;;;;;;;12.29;100.00;101821.00;4958393;28;20055;-80
2021/09/20 01:01:32;;;;;;;3.80;1.60;;;;;;;12.22;100.00;101822.06;4958547;28;20051;-80
2021/09/20 01:03:59;;;;;;;4.75;2.25;;;;;;;12.17;100.00;101823.06;4957155;29;20059;-79
2021/09/20 01:06:27;;;;;;;5.15;2.67;;;;;;;12.11;100.00;101822.38;4958332;28;20147;-79
2021/09/20 01:08:56;;;;;;;8.07;3.17;;;;;;;12.08;100.00;101818.03;4950278;29;20078;-79
2021/09/20 01:11:24;;;;;;;8.55;2.53;;;;;;;11.97;100.00;101804.41;4951912;28;20098;-79
2021/09/20 01:13:53;;;;;;;4.78;2.30;;;;;;;12.10;100.00;101821.50;4960575;28;20058;-79
2021/09/20 01:16:19;;;;;;;6.90;2.40;;;;;;;12.07;100.00;101812.88;4941361;29;20051;-80
2021/09/20 01:18:45;;;;;;;3.80;2.03;;;;;;;12.12;100.00;101835.41;4941139;29;20047;-79
2021/09/20 01:21:14;;;;;;;5.18;2.90;;;;;;;12.03;100.00;101814.69;4957883;28;20065;-79
2021/09/20 01:23:42;;;;;;;8.77;2.80;;;;;;;12.05;100.00;101819.88;4953813;28;20055;-79
2021/09/20 01:26:12;;;;;;;7.90;2.80;;;;;;;12.15;100.00;101839.69;4955251;29;20055;-79
2021/09/20 01:28:40;;;;;;;8.00;2.83;;;;;;;12.08;100.00;101827.66;4957208;29;20055;-80
2021/09/20 01:31:06;;;;;;;10.73;3.17;;;;;;;12.08;100.00;101840.75;4958147;28;20143;-79
2021/09/20 01:33:32;;;;;;;7.43;2.30;;;;;;;12.06;100.00;101837.31;4956712;29;20051;-79
2021/09/20 01:36:00;;;;;;;6.20;2.33;;;;;;;12.09;100.00;101843.31;4958677;28;20063;-79
2021/09/20 01:38:26;;;;;;;6.18;2.38;;;;;;;11.89;100.00;101814.16;4944049;29;20055;-80
2021/09/20 01:40:52;;;;;;;5.47;2.50;;;;;;;11.94;100.00;101843.72;4968889;28;20070;-80
2021/09/20 01:43:20;;;;;;;6.95;2.47;;;;;;;11.94;100.00;101841.09;4977145;28;20055;-79
2021/09/20 01:45:48;;;;;;;7.03;2.50;;;;;;;11.85;100.00;101837.81;4960598;29;20051;-80
2021/09/20 01:48:17;;;;;;;8.32;3.28;;;;;;;11.90;100.00;101837.69;4958768;28;20059;-80
2021/09/20 01:50:46;;;;;;;6.40;2.47;;;;;;;11.90;100.00;101836.81;4956478;28;20488;-79
2021/09/20 01:53:13;;;;;;;10.07;3.53;;;;;;;11.89;100.00;101838.59;4943848;28;20096;-79
2021/09/20 01:55:40;;;;;;;8.73;2.90;;;;;;;11.87;100.00;101850.00;4948508;29;20055;-80
2021/09/20 01:58:07;;;;;;;9.57;3.10;;;;;;;11.83;100.00;101844.81;4957789;28;20059;-79
2021/09/20 02:00:33;;;;;;;6.60;2.95;;;;;;;11.83;100.00;101836.13;4956935;29;20058;-79
2021/09/20 02:02:59;;;;;;;6.07;2.50;;;;;;;11.80;100.00;101836.19;4958152;28;20067;-79
2021/09/20 02:05:25;;;;;;;7.50;2.80;;;;;;;11.73;100.00;101832.00;4957705;29;20142;-80
2021/09/20 02:07:51;;;;;;;9.43;2.65;;;;;;;11.74;100.00;101829.34;4959237;28;20503;-80
2021/09/20 02:10:17;;;;;;;8.13;2.30;;;;;;;11.80;100.00;101839.69;4942319;29;20488;-79
2021/09/20 02:12:44;;;;;;;6.53;2.20;;;;;;;11.76;100.00;101831.94;4959201;29;20081;-79
2021/09/20 02:15:10;;;;;;;6.22;1.90;;;;;;;11.77;100.00;101844.13;4959456;29;20098;-79
2021/09/20 02:17:37;;;;;;;8.38;2.80;;;;;;;11.44;100.00;101823.13;4959396;28;20051;-79
2021/09/20 02:20:05;;;;;;;7.97;2.85;;;;;;;11.29;100.00;101846.13;4972939;29;20066;-78
2021/09/20 02:22:35;;;;;;;6.35;2.72;;;;;;;11.18;100.00;101856.81;4965222;29;20067;-79
2021/09/20 02:25:09;;;;;;;6.88;2.70;;;;;;;11.14;100.00;101856.91;4962482;29;20039;-77
2021/09/20 02:27:36;;;;;;;7.63;2.22;;;;;;;11.13;100.00;101866.50;4981001;28;20047;-78
2021/09/20 02:30:04;;;;;;;5.78;2.50;;;;;;;11.14;100.00;101864.75;4979664;28;20047;-78
2021/09/20 02:32:34;;;;;;;4.07;1.98;;;;;;;11.11;100.00;101864.78;4981105;28;20062;-79
2021/09/20 02:35:05;;;;;;;5.07;2.70;;;;;;;11.05;100.00;101865.81;4964675;29;20115;-79
2021/09/20 02:37:32;;;;;;;3.95;2.22;;;;;;;11.03;100.00;101858.00;4973756;29;20065;-79
2021/09/20 02:39:58;;;;;;;7.40;2.10;;;;;;;10.96;100.00;101852.94;4965742;28;20063;-79
2021/09/20 02:42:25;;;;;;;5.47;2.72;;;;;;;11.05;100.00;101860.56;4965881;28;20117;-80
2021/09/20 02:44:51;;;;;;;4.43;2.20;;;;;;;11.09;100.00;101869.22;4960165;28;20066;-80
2021/09/20 02:47:17;;;;;;;6.57;2.60;;;;;;;11.06;100.00;101859.69;4959664;28;20110;-80
2021/09/20 02:49:45;;;;;;;6.47;2.20;;;;;;;11.07;100.00;101863.16;4958810;28;20203;-79
2021/09/20 02:52:14;;;;;;;5.57;2.10;;;;;;;10.97;100.00;101871.16;4943550;28;20071;-79
2021/09/20 02:54:42;;;;;;;8.82;2.90;;;;;;;10.93;100.00;101869.53;4953388;29;20051;-79
2021/09/20 02:57:10;;;;;;;4.72;2.33;;;;;;;10.91;100.00;101867.84;4958283;29;20495;-80
2021/09/20 02:59:37;;;;;;;5.10;2.20;;;;;;;10.92;100.00;101866.97;4959352;28;20055;-79
2021/09/20 03:02:04;;;;;;;5.78;2.22;;;;;;;10.67;100.00;101839.59;4958928;28;20059;-80
2021/09/20 03:04:30;;;;;;;6.10;2.40;;;;;;;10.78;100.00;101875.06;4959441;29;20062;-80
2021/09/20 03:07:00;;;;;;;7.90;2.60;;;;;;;10.55;100.00;101848.50;4959184;28;20058;-80
2021/09/20 03:09:27;;;;;;;4.82;2.30;;;;;;;10.46;100.00;101842.63;4957800;29;20051;-80
2021/09/20 03:11:55;;;;;;;6.15;2.47;;;;;;;10.66;100.00;101879.63;4942189;29;20055;-79
2021/09/20 03:14:21;;;;;;;6.55;2.10;;;;;;;10.71;100.00;101876.94;4959553;28;20058;-80
2021/09/20 03:16:47;;;;;;;8.93;2.28;;;;;;;10.39;100.00;101836.66;4959080;28;20412;-80
2021/09/20 03:19:13;;;;;;;5.22;2.22;;;;;;;10.44;100.00;101847.88;4972862;28;20050;-79
2021/09/20 03:21:40;;;;;;;6.72;2.33;;;;;;;10.54;100.00;101882.50;4969306;28;20051;-78
2021/09/20 03:24:06;;;;;;;5.85;2.00;;;;;;;10.32;100.00;101864.56;4971739;28;20035;-79
2021/09/20 03:26:34;;;;;;;7.13;2.28;;;;;;;10.49;100.00;101886.94;4964920;28;20055;-79
2021/09/20 03:29:03;;;;;;;7.18;2.38;;;;;;;10.38;100.00;101868.88;4961729;29;20059;-79
2021/09/20 03:31:29;;;;;;;7.05;2.22;;;;;;;10.44;100.00;101892.25;4973392;28;20054;-78
2021/09/20 03:33:57;;;;;;;5.63;2.40;;;;;;;10.43;100.00;101893.13;4977449;29;20083;-78
2021/09/20 03:36:23;;;;;;;6.32;2.30;;;;;;;10.44;100.00;101892.25;4981230;28;20039;-78
2021/09/20 03:38:53;;;;;;;8.25;2.35;;;;;;;10.42;100.00;101899.25;4980900;28;20043;-79
2021/09/20 03:41:19;;;;;;;7.93;2.30;;;;;;;10.29;100.00;101882.91;4980335;28;20070;-79
2021/09/20 03:43:45;;;;;;;5.07;2.30;;;;;;;10.33;100.00;101889.78;4996420;28;20043;-79
2021/09/20 03:46:12;;;;;;;5.47;1.92;;;;;;;10.21;100.00;101874.38;4980554;28;20069;-79
2021/09/20 03:48:38;;;;;;;10.75;3.03;;;;;;;10.30;100.00;101905.53;4980510;28;20051;-79
2021/09/20 03:51:06;;;;;;;7.32;2.15;;;;;;;10.23;100.00;101896.09;4979125;28;20050;-79
2021/09/20 03:53:36;;;;;;;8.40;2.08;;;;;;;10.25;100.00;101910.81;4954582;28;20115;-80
2021/09/20 03:56:03;;;;;;;6.45;2.17;;;;;;;10.27;100.00;101904.72;4961396;29;20051;-78
2021/09/20 03:58:29;;;;;;;8.05;3.03;;;;;;;10.15;100.00;101896.19;4961423;29;20063;-78
2021/09/20 04:00:55;;;;;;;4.15;1.83;;;;;;;10.17;100.00;101899.66;4961512;29;20043;-78
2021/09/20 04:03:23;;;;;;;7.15;2.72;;;;;;;10.20;100.00;101917.84;4973391;28;20127;-78
2021/09/20 04:05:53;;;;;;;7.13;2.67;;;;;;;10.09;100.00;101907.63;4998028;28;20050;-78
2021/09/20 04:08:27;;;;;;;7.25;3.35;;;;;;;10.15;100.00;101918.81;5000033;28;20074;-78
2021/09/20 04:10:55;;;;;;;4.75;2.17;;;;;;;10.19;100.00;101920.50;4999865;28;20042;-79
2021/09/20 04:13:21;;;;;;;6.95;2.55;;;;;;;10.11;100.00;101899.75;4998982;28;20042;-80
2021/09/20 04:15:48;;;;;;;7.78;2.20;;;;;;;10.16;100.00;101912.72;4999338;28;20035;-79
2021/09/20 04:18:14;;;;;;;7.22;2.10;;;;;;;10.19;100.00;101931.81;4999842;28;20043;-78
2021/09/20 04:20:40;;;;;;;4.68;2.08;;;;;;;10.00;100.00;101902.53;4999811;28;20062;-79
2021/09/20 04:23:06;;;;;;;8.10;2.45;;;;;;;10.18;100.00;101939.63;4999866;28;20067;-78
2021/09/20 04:25:33;;;;;;;7.10;2.60;;;;;;;10.10;100.00;101937.16;4999901;28;20775;-79
2021/09/20 04:27:58;;;;;;;11.65;2.55;;;;;;;9.94;100.00;101919.13;4987233;28;20067;-79
2021/09/20 04:30:25;;;;;;;4.70;2.25;;;;;;;9.98;100.00;101927.78;4980425;28;20103;-78
2021/09/20 04:32:51;;;;;;;5.90;2.13;;;;;;;10.07;100.00;101945.03;4980377;28;20043;-79
2021/09/20 04:35:16;;;;;;;5.15;2.10;;;;;;;9.96;100.00;101924.34;4995990;28;20047;-78
2021/09/20 04:37:42;;;;;;;7.82;2.33;;;;;;;10.01;100.00;101926.88;4979640;28;20055;-77
2021/09/20 04:40:11;;;;;;;6.50;2.45;;;;;;;10.03;100.00;101938.16;4980053;28;20043;-78
2021/09/20 04:42:37;;;;;;;5.47;3.00;;;;;;;10.00;100.00;101954.72;4979352;28;20062;-78
2021/09/20 04:45:03;;;;;;;7.53;2.42;;;;;;;9.99;100.00;101937.31;4980263;28;20043;-78
2021/09/20 04:47:29;;;;;;;5.25;2.72;;;;;;;9.96;100.00;101946.94;4979977;28;20047;-79
2021/09/20 04:49:55;;;;;;;3.88;2.35;;;;;;;9.93;100.00;101947.88;4979077;28;20062;-79
2021/09/20 04:52:22;;;;;;;7.05;2.45;;;;;;;9.86;100.00;101941.88;4979333;28;20071;-79
2021/09/20 04:54:48;;;;;;;6.72;2.28;;;;;;;9.84;100.00;101956.69;4979413;28;20090;-79
2021/09/20 04:57:13;;;;;;;5.55;2.20;;;;;;;9.42;100.00;101886.91;4969986;28;20039;-78
2021/09/20 04:59:41;;;;;;;5.57;2.40;;;;;;;9.77;100.00;101953.28;4962868;28;20061;-78
2021/09/20 05:02:07;;;;;;;5.00;2.03;;;;;;;9.89;100.00;101967.91;4979496;28;20058;-79
2021/09/20 05:04:34;;;;;;;6.68;2.90;;;;;;;9.65;100.00;101930.00;4978947;28;20128;-79
2021/09/20 05:07:01;;;;;;;5.45;2.25;;;;;;;9.89;100.00;101964.47;4961567;29;20039;-78
2021/09/20 05:09:27;;;;;;;5.53;2.20;;;;;;;9.88;100.00;101973.16;4962575;29;20027;-79
2021/09/20 05:11:53;;;;;;;6.65;3.17;;;;;;;9.85;100.00;101970.56;4977261;28;20050;-79
2021/09/20 05:14:19;;;;;;;7.10;3.08;;;;;;;9.80;100.00;101972.41;4964719;28;20062;-78
2021/09/20 05:16:49;;;;;;;8.07;2.60;;;;;;;9.67;100.00;101966.50;4962173;29;20118;-79
2021/09/20 05:19:15;;;;;;;6.18;2.83;;;;;;;9.62;100.00;101953.53;4963492;29;20056;-79
2021/09/20 05:21:41;;;;;;;7.72;2.55;;;;;;;9.72;100.00;101969.91;4977391;28;20050;-79
2021/09/20 05:24:09;;;;;;;8.07;2.60;;;;;;;9.76;100.00;101979.41;4978975;28;20126;-79
2021/09/20 05:26:35;;;;;;;7.13;2.42;;;;;;;9.77;100.00;101986.34;4981394;28;20039;-79
2021/09/20 05:29:01;;;;;;;7.85;2.42;;;;;;;9.73;100.00;101992.50;4982632;28;20070;-78
2021/09/20 05:31:28;;;;;;;6.65;2.40;;;;;;;9.63;100.00;101976.13;4982639;28;20039;-79
2021/09/20 05:33:55;;;;;;;7.60;2.75;;;;;;;9.56;100.00;101977.09;4981863;28;20074;-79
2021/09/20 05:36:24;;;;;;;7.80;2.78;;;;;;;9.73;100.00;102005.53;4981976;28;20063;-78
2021/09/20 05:38:50;;;;;;;6.03;2.80;;;;;;;9.69;100.00;102002.09;4981826;28;20047;-79
2021/09/20 05:41:16;;;;;;;6.63;3.00;;;;;;;9.70;100.00;102005.56;4981488;28;20058;-79
2021/09/20 05:43:42;;;;;;;8.05;3.47;;;;;;;9.66;100.00;102011.72;4982304;28;20114;-77
2021/09/20 05:46:08;;;;;;;7.28;3.20;;;;;;;9.55;100.00;102010.09;4981161;28;20078;-78
2021/09/20 05:48:35;;;;;;;5.95;3.00;;;;;;;9.52;100.00;102015.38;4982346;28;20058;-78
2021/09/20 05:51:01;;;;;;;6.93;3.03;;;;;;;9.49;100.00;102014.53;4980036;28;20047;-79
2021/09/20 05:53:28;;;;;;;9.45;3.25;;;;;;;9.45;100.00;102009.34;4964267;29;20046;-78
2021/09/20 05:55:56;;;;;;;7.35;3.40;;;;;;;9.51;100.00;102024.06;4981688;28;20075;-78
2021/09/20 05:58:22;;;;;;;6.72;3.50;;;;;;;9.45;100.00;101995.47;4980317;28;20069;-79
2021/09/20 06:00:49;;;;;;;6.90;3.55;;;;;;;9.53;100.00;102016.22;4981116;28;20039;-79
2021/09/20 06:03:15;;;;;;;7.70;3.47;;;;;;;9.52;100.00;102009.28;4980444;28;20047;-79
2021/09/20 06:05:41;;;;;;;6.57;3.65;;;;;;;9.58;100.00;102022.22;4981573;28;20102;-79
2021/09/20 06:08:07;;;;;;;8.05;3.90;;;;;;;9.50;100.00;102004.09;4977248;28;20051;-79
2021/09/20 06:10:35;;;;;;;10.32;3.83;;;;;;;9.67;100.00;102024.72;4981627;28;20055;-78
2021/09/20 06:13:03;;;;;;;10.82;3.63;;;;;;;9.63;100.00;102023.06;4980693;28;20043;-80
2021/09/20 06:15:30;;;;;;;7.45;3.60;;;;;;;9.67;100.00;102021.25;4987986;28;20064;-77
2021/09/20 06:17:57;;;;;;;6.97;3.30;;;;;;;9.60;100.00;101997.84;4960161;29;20040;-77
2021/09/20 06:20:24;;;;;;;8.75;3.33;;;;;;;9.57;100.00;101992.69;4962761;29;20043;-78
2021/09/20 06:22:52;;;;;;;6.05;3.10;;;;;;;9.83;100.00;102019.31;4977829;28;20051;-78
2021/09/20 06:25:18;;;;;;;6.55;3.08;;;;;;;9.73;100.00;102000.31;4994028;28;20066;-79
2021/09/20 06:27:45;;;;;;;7.95;3.75;;;;;;;9.90;100.00;102036.59;4979228;28;20164;-78
2021/09/20 06:30:13;;;;;;;8.52;3.83;;;;;;;9.91;100.00;102038.31;4976879;29;20051;-79
2021/09/20 06:32:41;;;;;;;6.07;3.95;;;;;;;9.90;100.00;102037.44;4990003;28;20044;-78
2021/09/20 06:35:08;;;;;;;7.53;4.03;;;;;;;9.85;100.00;102038.38;4978848;28;20042;-78
2021/09/20 06:37:35;;;;;;;6.70;4.43;;;;;;;9.88;100.00;102046.19;4978939;28;20106;-79
2021/09/20 06:40:05;;;;;;;9.18;4.13;;;;;;;9.80;100.00;102038.44;4978860;29;20043;-78
2021/09/20 06:42:31;;;;;;;9.35;4.88;;;;;;;9.88;100.00;102044.44;4974575;29;20079;-80
2021/09/20 06:44:58;;;;;;;8.85;4.25;;;;;;;9.91;100.00;102046.13;4959166;29;20107;-77
2021/09/20 06:47:24;;;;;;;10.50;4.72;;;;;;;9.84;100.00;102016.69;4959229;29;20063;-82
2021/09/20 06:49:51;;;;;;;8.77;4.55;;;;;;;10.12;100.00;102044.97;4984361;28;20072;-80
2021/09/20 06:52:17;;;;;;;11.60;4.70;;;;;;;10.23;100.00;102044.81;4978682;28;20051;-79
2021/09/20 06:54:44;;;;;;;11.63;4.55;;;;;;;10.36;100.00;102050.69;4979902;28;20039;-78
2021/09/20 06:57:10;;;;;;;9.60;4.82;;;;;;;10.41;100.00;102044.56;4977193;28;20035;-80
2021/09/20 06:59:37;;;;;;;10.73;4.05;;;;;;;10.53;100.00;102048.75;4979518;28;20070;-79
2021/09/20 07:02:04;;;;;;;9.35;4.13;;;;;;;10.46;100.00;102018.41;4969111;28;20058;-77
2021/09/20 07:04:32;;;;;;;10.07;3.97;;;;;;;10.77;100.00;102054.44;4975109;29;20039;-80
2021/09/20 07:06:58;;;;;;;9.27;3.58;;;;;;;10.63;100.00;102015.50;4966563;28;20055;-76
2021/09/20 07:09:28;;;;;;;9.25;3.65;;;;;;;10.88;100.00;102057.69;4978537;28;20054;-81
2021/09/20 07:11:56;;;;;;;7.85;3.63;;;;;;;10.98;100.00;102040.09;4989609;28;20051;-79
2021/09/20 07:14:23;;;;;;;7.85;3.25;;;;;;;11.23;100.00;102068.44;4967503;28;20874;-81
2021/09/20 07:16:49;;;;;;;7.63;3.25;;;;;;;11.30;100.00;102062.19;4965803;28;20102;-78
2021/09/20 07:19:16;;;;;;;7.32;3.55;;;;;;;11.37;100.00;102058.53;4959473;29;20066;-78
2021/09/20 07:21:43;;;;;;;6.72;3.50;;;;;;;11.44;100.00;102061.91;4968188;28;20055;-78
2021/09/20 07:24:10;;;;;;;9.05;4.32;;;;;;;11.58;100.00;102077.31;4972816;28;20055;-78
2021/09/20 07:26:36;;;;;;;8.52;4.25;;;;;;;11.65;100.00;102078.06;4972215;29;20051;-77
2021/09/20 07:29:02;;;;;;;8.73;3.60;;;;;;;11.82;100.00;102065.47;4982481;28;20058;-78
2021/09/20 07:31:29;;;;;;;9.55;3.58;;;;;;;11.97;100.00;102077.41;4996808;28;20061;-78
2021/09/20 07:33:55;;;;;;;8.27;3.42;;;;;;;11.88;100.00;102051.41;4996419;28;20043;-77
2021/09/20 07:36:23;;;;;;;7.30;3.15;;;;;;;12.11;100.00;102081.50;4996642;28;20038;-79
2021/09/20 07:38:50;;;;;;;8.57;3.50;;;;;;;12.25;100.00;102083.78;4979893;28;20045;-81
2021/09/20 07:41:17;;;;;;;8.25;3.42;;;;;;;12.38;100.00;102092.19;4980122;28;20047;-78
2021/09/20 07:43:45;;;;;;;8.77;3.15;;;;;;;12.42;100.00;102089.47;4979248;28;20099;-80
2021/09/20 07:46:15;;;;;;;11.60;3.72;;;;;;;12.45;100.00;102071.09;4979804;28;20059;-81
2021/09/20 07:48:44;;;;;;;8.10;3.35;;;;;;;12.52;100.00;102068.31;4978679;28;20039;-80
2021/09/20 07:51:12;;;;;;;11.52;3.10;;;;;;;12.78;100.00;102099.09;4976436;28;20037;-81
2021/09/20 07:53:53;;;;;;;9.45;2.72;;;;;;;12.93;100.00;102090.00;4982244;28;20042;-80
2021/09/20 07:56:19;;;;;;;7.65;2.70;;;;;;;13.08;100.00;102099.22;4980281;28;20035;-80
2021/09/20 07:58:45;;;;;;;6.93;2.63;;;;;;;13.15;100.00;102090.31;4979633;28;20055;-80
2021/09/20 08:01:14;;;;;;;7.93;2.90;;;;;;;13.20;100.00;102084.94;4979388;28;20043;-79
2021/09/20 08:03:40;;;;;;;8.38;3.08;;;;;;;13.45;100.00;102106.13;4978622;28;20035;-80
2021/09/20 08:06:07;;;;;;;5.75;2.75;;;;;;;13.60;100.00;102097.81;4979049;28;20055;-80
2021/09/20 08:08:34;;;;;;;7.07;2.50;;;;;;;13.70;100.00;102105.44;4978969;28;20050;-81
2021/09/20 08:11:00;;;;;;;9.63;2.60;;;;;;;13.74;100.00;102104.44;4976515;28;20111;-81
2021/09/20 08:13:30;;;;;;;10.48;3.20;;;;;;;13.81;100.00;102106.00;4975897;28;20053;-80
2021/09/20 08:15:59;;;;;;;9.45;2.70;;;;;;;13.70;100.00;102082.69;4979750;28;20104;-80
2021/09/20 08:18:26;;;;;;;9.18;2.40;;;;;;;13.83;100.00;102096.31;4978805;28;20055;-81
2021/09/20 08:20:53;;;;;;;8.40;2.47;;;;;;;13.85;100.00;102109.38;4977671;28;20063;-80
2021/09/20 08:23:22;;;;;;;6.30;2.10;;;;;;;14.08;100.00;102111.31;4972434;28;20070;-80
2021/09/20 08:25:50;;;;;;;7.30;2.42;;;;;;;14.14;100.00;102105.03;4962045;28;20057;-80
2021/09/20 08:28:16;;;;;;;9.07;2.55;;;;;;;14.21;100.00;102106.56;4976969;28;20070;-80
2021/09/20 08:30:42;;;;;;;8.48;2.70;;;;;;;14.46;100.00;102116.31;4979623;28;20027;-80
2021/09/20 08:33:09;;;;;;;7.97;2.30;;;;;;;14.39;100.00;102106.00;4994547;28;20054;-80
2021/09/20 08:35:36;;;;;;;5.65;2.00;;;;;;;14.62;100.00;102124.56;4979085;28;20043;-80
2021/09/20 08:38:02;;;;;;;7.90;2.55;;;;;;;14.56;100.00;102115.09;4978998;28;20095;-80
2021/09/20 08:40:31;;;;;;;8.85;2.08;;;;;;;14.75;100.00;102128.53;4978499;28;20050;-81
2021/09/20 08:42:58;;;;;;;7.82;2.13;;;;;;;14.80;100.00;102126.59;4979546;28;20031;-81
2021/09/20 08:45:26;;;;;;;8.35;2.30;;;;;;;14.83;100.00;102131.78;4978693;28;20065;-80
2021/09/20 08:47:54;;;;;;;6.45;1.95;;;;;;;14.94;100.00;102123.53;4977818;28;20055;-80
2021/09/20 08:50:27;;;;;;;6.80;1.90;;;;;;;14.99;100.00;102134.75;4959122;29;20086;-80
2021/09/20 08:52:54;;;;;;;9.50;1.63;;;;;;;15.06;100.00;102132.75;4954764;29;20063;-79
2021/09/20 08:55:21;;;;;;;5.85;2.03;;;;;;;15.12;100.00;102137.78;4954633;28;20060;-80
2021/09/20 08:57:48;;;;;;;5.95;1.52;;;;;;;15.18;100.00;102136.75;4984215;28;20054;-79
2021/09/20 09:00:14;;;;;;;9.85;2.15;;;;;;;15.19;100.00;102125.31;4979295;28;20031;-80
2021/09/20 09:02:40;;;;;;;4.43;1.88;;;;;;;15.43;100.00;102142.00;4978715;28;20373;-80
2021/09/20 09:05:12;;;;;;;7.10;1.83;;;;;;;15.45;100.00;102148.09;4977271;28;20047;-78
2021/09/20 09:07:48;;;;;;;6.53;1.67;;;;;;;15.19;100.00;102096.38;4958373;29;20059;-79
2021/09/20 09:10:14;;;;;;;5.95;1.70;;;;;;;15.63;100.00;102149.19;4959399;29;20055;-80
2021/09/20 09:12:41;;;;;;;6.75;1.67;;;;;;;15.61;100.00;102113.28;4959360;28;20058;-79
2021/09/20 09:15:11;;;;;;;6.57;2.10;;;;;;;15.93;100.00;102146.38;4958783;28;20055;-80
2021/09/20 09:17:44;;;;;;;89.15;10.68;;;;;;;16.09;100.00;102156.34;4957582;29;20081;-79
2021/09/20 09:20:17;;;;;;;47.80;6.95;;;;;;;16.03;100.00;102151.28;4945109;29;20078;-80
2021/09/20 09:22:55;;;;;;;7.00;2.03;;;;;;;15.96;100.00;102155.94;4957528;29;20059;-80
2021/09/20 09:25:23;;;;;;;9.63;2.38;;;;;;;16.10;100.00;102158.03;4958771;28;20543;-79
2021/09/20 09:27:52;;;;;;;10.55;2.47;;;;;;;16.25;100.00;102154.81;4957776;29;20086;-79
2021/09/20 09:30:25;;;;;;;15.63;2.92;;;;;;;16.25;100.00;102160.09;4956463;28;20086;-79
2021/09/20 09:33:11;;;;;;;6.05;2.00;;;;;;;16.30;100.00;102157.28;4957964;28;20059;-79
2021/09/20 09:35:42;;;;;;;5.53;1.33;;;;;;;16.36;100.00;102164.94;4957917;29;20098;-79
2021/09/20 09:38:09;;;;;;;4.53;1.58;;;;;;;16.45;100.00;102166.34;4957538;28;20059;-80
2021/09/20 09:40:55;;;;;;;18.95;4.53;;;;;;;16.59;100.00;102160.53;4957825;29;20062;-80
2021/09/20 09:43:35;;;;;;;9.27;2.35;;;;;;;16.40;100.00;102157.78;4938972;29;20473;-80
2021/09/20 09:46:17;;;;;;;9.82;2.28;;;;;;;16.46;100.00;102163.66;4938674;29;20055;-79
2021/09/20 09:48:44;;;;;;;10.57;1.92;;;;;;;16.48;100.00;102143.38;4938543;29;20405;-80
2021/09/20 09:51:11;;;;;;;6.35;1.42;;;;;;;16.67;100.00;102168.97;4938079;29;20056;-79
2021/09/20 09:53:42;;;;;;;5.60;1.63;;;;;;;16.85;100.00;102171.81;4938056;29;20047;-80
2021/09/20 09:56:17;;;;;;;6.35;1.50;;;;;;;16.97;100.00;102173.97;4947462;28;20508;-80
2021/09/20 09:58:53;;;;;;;7.95;1.60;;;;;;;17.19;100.00;102178.34;4957713;29;20063;-79
2021/09/20 10:01:22;;;;;;;8.10;1.88;;;;;;;17.29;100.00;102174.38;4958274;28;20092;-81
2021/09/20 10:04:13;;;;;;;5.13;1.40;;;;;;;17.38;100.00;102178.41;4953411;29;20050;-82
2021/09/20 10:06:42;;;;;;;7.18;1.70;;;;;;;17.40;100.00;102176.56;4949073;29;20424;-82
2021/09/20 10:09:13;;;;;;;4.70;1.60;;;;;;;17.51;100.00;102170.81;4957510;28;20106;-80
2021/09/20 10:11:42;;;;;;;4.68;1.27;;;;;;;17.62;100.00;102178.25;4956620;28;20444;-82
2021/09/20 10:14:09;;;;;;;9.45;1.90;;;;;;;17.77;100.00;102172.28;4957371;28;20047;-80
2021/09/20 10:16:36;;;;;;;4.30;1.60;;;;;;;17.92;100.00;102182.16;4972385;28;20051;-81
2021/09/20 10:19:05;;;;;;;6.13;1.48;;;;;;;18.05;100.00;102176.34;4943283;29;20079;-80
2021/09/20 10:21:35;;;;;;;6.95;1.38;;;;;;;17.75;100.00;102153.88;4937928;29;20059;-80
2021/09/20 10:24:04;;;;;;;6.38;1.60;;;;;;;17.79;100.00;102140.53;4941784;29;20126;-80
2021/09/20 10:26:31;;;;;;;5.85;1.65;;;;;;;17.93;100.00;102170.66;4960862;28;20042;-80
2021/09/20 10:29:01;;;;;;;7.32;2.03;;;;;;;18.30;100.00;102170.75;4975898;28;20055;-79
2021/09/20 10:31:28;;;;;;;6.53;1.63;;;;;;;18.47;100.00;102183.19;4965572;28;20420;-80
2021/09/20 10:34:21;;;;;;;6.47;1.27;;;;;;;18.48;100.00;102174.31;4959376;28;20178;-80
2021/09/20 10:36:51;;;;;;;4.28;1.20;;;;;;;18.21;100.00;102173.84;4958051;28;20055;-78
2021/09/20 10:39:39;;;;;;;4.72;1.15;;;;;;;18.48;100.00;102182.25;4958547;29;20062;-79
2021/09/20 10:42:05;;;;;;;5.88;1.48;;;;;;;18.31;100.00;102182.19;4975646;28;20027;-80
2021/09/20 10:44:41;;;;;;;3.70;1.55;;;;;;;18.26;100.00;102178.91;4954431;29;20109;-81
2021/09/20 10:47:15;;;;;;;3.97;1.58;;;;;;;18.39;100.00;102178.28;4961171;29;20404;-81
2021/09/20 10:49:49;;;;;;;9.15;1.67;;;;;;;18.24;100.00;102181.63;4939105;29;20051;-81
2021/09/20 10:52:16;;;;;;;5.18;0.98;;;;;;;18.13;100.00;102174.19;4952255;29;20074;-81
2021/09/20 10:55:06;;;;;;;4.78;1.55;;;;;;;18.37;100.00;102182.75;4966224;28;20074;-78
2021/09/20 10:57:32;;;;;;;3.60;1.05;;;;;;;18.39;100.00;102169.47;4950675;29;20059;-79
2021/09/20 11:00:24;;;;;;;5.43;1.20;;;;;;;18.63;100.00;102177.16;4950766;29;20055;-80
2021/09/20 11:02:50;;;;;;;3.72;1.00;;;;;;;18.71;100.00;102167.91;4965799;28;20062;-81
2021/09/20 11:05:25;;;;;;;3.08;1.17;;;;;;;18.83;100.00;102174.38;4967871;28;20066;-81
2021/09/20 11:07:53;;;;;;;4.22;1.10;;;;;;;18.74;100.00;102172.19;4951012;29;20058;-80
2021/09/20 11:10:34;;;;;;;5.47;1.98;;;;;;;18.78;100.00;102160.53;4969491;29;20515;-81
2021/09/20 11:13:05;;;;;;;4.22;1.33;;;;;;;18.78;100.00;102184.31;4973926;29;20063;-82
2021/09/20 11:15:42;;;;;;;4.35;0.98;;;;;;;18.80;100.00;102177.19;4960247;29;20059;-80
2021/09/20 11:18:09;;;;;;;4.05;1.17;;;;;;;18.92;100.00;102170.47;4960742;29;20036;-80
2021/09/20 11:20:41;;;;;;;7.03;1.38;;;;;;;19.08;100.00;102191.72;4960128;29;20064;-81
2021/09/20 11:23:22;;;;;;;4.30;1.40;;;;;;;18.92;100.00;102132.53;4950296;29;20087;-82